Time;durP1;ratioP1;P1;durP2;ratioP2;P2;SDS_P1;SDS_P2;PMS_P1;PMS_P2;Temp;Humidity;BMP_temperature;BMP_pressure;BME280_temperature;BME280_humidity;BME280_pressure;Samples;Min_cycle;Max_cycle;Signal;HPM_P1;HPM_P2
2023/02/14 00:02:45;;;;;;;25.27;20.00;;;6.80;43.60;;;;;;10390856;28;20230;-70
2023/02/14 00:07:48;;;;;;;23.27;18.67;;;6.80;43.70;;;;;;10393498;28;20262;-70
2023/02/14 00:12:53;;;;;;;22.30;17.77;;;6.80;43.80;;;;;;10387919;28;20237;-70
2023/02/14 00:17:58;;;;;;;23.33;18.33;;;6.80;43.90;;;;;;10399337;28;20238;-70
2023/02/14 00:23:01;;;;;;;23.87;18.63;;;6.90;43.70;;;;;;10395090;28;20227;-70
2023/02/14 00:28:06;;;;;;;23.67;19.40;;;6.80;43.40;;;;;;10389139;28;20237;-70
2023/02/14 00:33:09;;;;;;;25.47;18.83;;;6.80;43.50;;;;;;10404193;28;20242;-72
2023/02/14 00:38:12;;;;;;;23.93;17.87;;;6.70;43.40;;;;;;10392845;28;20234;-70
2023/02/14 00:43:17;;;;;;;22.40;17.73;;;6.70;43.40;;;;;;10390074;28;20226;-73
2023/02/14 00:48:20;;;;;;;24.27;18.77;;;6.70;43.70;;;;;;10389680;28;20241;-70
2023/02/14 00:53:23;;;;;;;22.53;17.67;;;6.60;43.40;;;;;;10394668;28;20229;-70
2023/02/14 00:58:28;;;;;;;23.20;17.73;;;6.50;43.50;;;;;;10389034;28;20233;-70
2023/02/14 01:03:31;;;;;;;25.60;18.33;;;6.50;43.90;;;;;;10394104;28;20225;-70
2023/02/14 01:08:34;;;;;;;25.67;18.00;;;6.50;43.70;;;;;;10388280;28;20230;-70
2023/02/14 01:13:39;;;;;;;26.23;19.47;;;6.50;43.90;;;;;;10387678;28;20701;-70
2023/02/14 01:18:43;;;;;;;26.83;19.97;;;6.40;43.90;;;;;;10385235;28;20230;-70
2023/02/14 01:23:47;;;;;;;26.37;19.87;;;6.40;43.90;;;;;;10386845;28;21663;-70
2023/02/14 01:28:52;;;;;;;25.77;18.90;;;6.40;43.90;;;;;;10385480;28;20231;-70
2023/02/14 01:33:55;;;;;;;25.20;18.03;;;6.30;43.80;;;;;;10387004;28;20732;-70
2023/02/14 01:39:01;;;;;;;24.80;17.20;;;6.30;43.80;;;;;;10385180;28;20598;-70
2023/02/14 01:44:27;;;;;;;20.73;16.13;;;6.30;43.80;;;;;;10385876;28;20236;-70
2023/02/14 01:49:34;;;;;;;19.90;15.57;;;6.20;44.00;;;;;;10385841;28;20225;-70
2023/02/14 01:54:43;;;;;;;22.97;16.43;;;6.20;43.70;;;;;;10381707;28;20784;-70
2023/02/14 01:59:52;;;;;;;21.07;15.70;;;6.20;43.70;;;;;;10387886;28;20717;-70
2023/02/14 02:04:56;;;;;;;19.63;15.40;;;6.10;43.70;;;;;;10387533;28;20245;-70
2023/02/14 02:10:02;;;;;;;22.53;16.03;;;6.10;43.60;;;;;;10382475;28;20233;-70
2023/02/14 02:15:08;;;;;;;22.63;15.63;;;6.00;43.70;;;;;;10382937;28;20241;-70
2023/02/14 02:20:39;;;;;;;21.30;15.47;;;6.00;44.00;;;;;;10383424;28;20706;-70
2023/02/14 02:26:10;;;;;;;18.80;15.03;;;6.00;44.50;;;;;;10389281;28;20230;-70
2023/02/14 02:31:37;;;;;;;18.93;14.97;;;6.00;44.30;;;;;;10386513;28;20230;-70
2023/02/14 02:36:57;;;;;;;18.60;14.27;;;5.90;44.30;;;;;;10393265;28;20226;-70
2023/02/14 02:42:10;;;;;;;16.07;12.80;;;5.80;44.20;;;;;;10390437;28;20237;-70
2023/02/14 02:47:21;;;;;;;17.47;14.03;;;5.80;44.20;;;;;;10389658;28;20226;-70
2023/02/14 02:57:53;;;;;;;16.37;14.03;;;5.80;44.30;;;;;;10396911;28;20695;-70
2023/02/14 03:08:19;;;;;;;24.03;15.03;;;5.80;43.90;;;;;;10394461;28;20271;-70
2023/02/14 03:13:43;;;;;;;18.57;14.77;;;5.80;44.10;;;;;;10398648;28;20240;-70
2023/02/14 03:19:08;;;;;;;19.60;14.30;;;5.80;44.60;;;;;;10398215;28;20226;-70
2023/02/14 03:24:25;;;;;;;22.33;13.97;;;5.80;44.60;;;;;;10395545;28;20237;-70
2023/02/14 03:29:32;;;;;;;20.27;14.60;;;5.80;44.60;;;;;;10392829;28;20663;-70
2023/02/14 03:34:45;;;;;;;18.80;15.47;;;5.80;44.20;;;;;;10395356;28;20233;-70
2023/02/14 03:39:58;;;;;;;17.70;14.40;;;5.80;44.30;;;;;;10396892;28;20229;-70
2023/02/14 03:45:04;;;;;;;20.60;14.47;;;5.80;44.30;;;;;;10396106;28;20246;-71
2023/02/14 03:50:13;;;;;;;18.67;14.63;;;5.80;44.30;;;;;;10395624;28;20271;-70
2023/02/14 03:55:24;;;;;;;17.63;14.27;;;5.80;44.30;;;;;;10395936;28;20234;-70
2023/02/14 04:00:30;;;;;;;19.07;13.70;;;5.80;44.60;;;;;;10400033;28;20233;-70
2023/02/14 04:05:33;;;;;;;21.67;14.97;;;5.80;44.50;;;;;;10391548;28;20241;-70
2023/02/14 04:10:40;;;;;;;19.23;15.20;;;5.90;44.30;;;;;;10395494;28;20228;-70
2023/02/14 04:15:43;;;;;;;19.00;14.33;;;5.90;44.40;;;;;;10397462;28;20241;-70
2023/02/14 04:20:47;;;;;;;19.93;13.43;;;5.90;44.00;;;;;;10389306;28;20235;-70
2023/02/14 04:25:51;;;;;;;20.00;14.27;;;5.90;44.00;;;;;;10397195;28;20356;-70
2023/02/14 04:30:54;;;;;;;15.57;12.93;;;5.90;44.00;;;;;;10392284;28;20232;-70
2023/02/14 04:35:58;;;;;;;16.60;13.97;;;5.80;43.80;;;;;;10388330;28;20241;-70
2023/02/14 04:41:02;;;;;;;15.00;12.70;;;5.80;44.00;;;;;;10387559;28;20223;-70
2023/02/14 04:46:05;;;;;;;13.33;11.67;;;5.80;44.10;;;;;;10389372;28;20234;-70
2023/02/14 04:51:08;;;;;;;13.63;11.60;;;5.70;43.90;;;;;;10399748;28;20226;-70
2023/02/14 04:56:34;;;;;;;23.07;13.40;;;5.80;43.90;;;;;;10385803;28;20237;-70
2023/02/14 05:01:37;;;;;;;18.77;13.00;;;5.80;44.60;;;;;;10392137;28;20229;-70
2023/02/14 05:06:40;;;;;;;14.23;12.67;;;5.80;43.90;;;;;;10398495;28;20282;-70
2023/02/14 05:11:45;;;;;;;13.60;10.87;;;5.70;43.60;;;;;;10394340;28;20267;-70
2023/02/14 05:16:48;;;;;;;15.03;11.30;;;5.70;43.80;;;;;;10387740;28;20292;-70
2023/02/14 05:21:51;;;;;;;14.00;11.57;;;5.60;43.80;;;;;;10397101;28;20251;-70
2023/02/14 05:26:56;;;;;;;15.80;12.03;;;5.60;43.80;;;;;;10395872;28;20230;-70
2023/02/14 05:31:59;;;;;;;11.97;10.70;;;5.60;44.10;;;;;;10385672;28;20226;-70
2023/02/14 05:37:02;;;;;;;12.77;11.37;;;5.60;43.70;;;;;;10390460;28;20316;-70
2023/02/14 05:42:07;;;;;;;19.60;14.43;;;5.50;43.70;;;;;;10389436;28;20229;-70
2023/02/14 05:47:09;;;;;;;17.93;12.83;;;5.50;43.90;;;;;;10385387;28;20329;-71
2023/02/14 05:52:15;;;;;;;14.80;12.90;;;5.50;43.90;;;;;;10387617;28;20226;-70
2023/02/14 05:57:19;;;;;;;15.23;12.43;;;5.50;43.70;;;;;;10388410;28;20749;-70
2023/02/14 06:02:22;;;;;;;19.37;12.73;;;5.40;43.70;;;;;;10387446;28;20233;-70
2023/02/14 06:07:25;;;;;;;15.97;11.93;;;5.40;43.60;;;;;;10391768;28;20237;-70
2023/02/14 06:12:30;;;;;;;22.03;12.03;;;5.30;43.50;;;;;;10396674;28;20241;-71
2023/02/14 06:17:33;;;;;;;20.40;13.10;;;5.10;43.60;;;;;;10396279;28;20234;-70
2023/02/14 06:22:37;;;;;;;19.03;14.63;;;5.10;43.60;;;;;;10393956;28;20230;-72
2023/02/14 06:27:41;;;;;;;14.27;11.77;;;5.00;44.30;;;;;;10385269;28;20261;-70
2023/02/14 06:32:45;;;;;;;16.87;13.27;;;5.10;44.20;;;;;;10400121;28;20237;-70
2023/02/14 06:37:48;;;;;;;19.97;13.97;;;5.10;44.00;;;;;;10395630;28;20233;-70
2023/02/14 06:42:54;;;;;;;17.60;13.87;;;5.20;44.00;;;;;;10398340;28;20669;-70
2023/02/14 06:47:58;;;;;;;16.77;12.83;;;5.20;44.00;;;;;;10398740;28;20241;-70
2023/02/14 06:53:02;;;;;;;15.50;12.63;;;5.20;43.60;;;;;;10402693;28;20230;-72
2023/02/14 06:58:06;;;;;;;13.53;11.87;;;5.10;43.40;;;;;;10401591;28;20233;-72
2023/02/14 07:03:10;;;;;;;15.37;12.87;;;5.00;43.60;;;;;;10399363;28;20233;-72
2023/02/14 07:08:13;;;;;;;16.73;12.53;;;5.00;43.90;;;;;;10400381;28;20728;-72
2023/02/14 07:13:18;;;;;;;17.73;14.13;;;4.90;44.00;;;;;;10384093;28;20265;-72
2023/02/14 07:18:21;;;;;;;16.97;13.23;;;5.00;44.40;;;;;;10390668;28;20361;-72
2023/02/14 07:23:24;;;;;;;19.50;13.73;;;5.00;44.10;;;;;;10395100;28;20229;-71
2023/02/14 07:28:30;;;;;;;18.40;14.17;;;5.00;43.90;;;;;;10394207;28;20256;-71
2023/02/14 07:33:33;;;;;;;18.90;13.73;;;5.00;43.90;;;;;;10401925;28;20233;-71
2023/02/14 07:38:36;;;;;;;19.63;13.10;;;5.00;43.80;;;;;;10395500;28;20228;-71
2023/02/14 07:43:41;;;;;;;15.70;13.23;;;5.00;43.80;;;;;;10392256;28;20256;-71
2023/02/14 07:48:44;;;;;;;19.40;14.40;;;4.90;43.90;;;;;;10386162;28;20233;-71
2023/02/14 07:53:48;;;;;;;14.67;11.40;;;4.90;44.00;;;;;;10392920;28;20254;-72
2023/02/14 07:58:52;;;;;;;25.33;13.07;;;4.90;43.90;;;;;;10381342;28;20276;-71
2023/02/14 08:03:55;;;;;;;20.27;13.43;;;4.90;44.00;;;;;;10383069;28;20238;-71
2023/02/14 08:08:59;;;;;;;25.47;14.17;;;4.80;43.80;;;;;;10386394;28;20225;-72
2023/02/14 08:14:04;;;;;;;14.80;12.30;;;4.80;43.80;;;;;;10382644;28;20230;-71
2023/02/14 08:19:07;;;;;;;15.37;12.33;;;4.70;44.00;;;;;;10380919;28;20239;-71
2023/02/14 08:24:10;;;;;;;17.30;11.67;;;4.60;44.00;;;;;;10387898;28;20233;-71
2023/02/14 08:29:15;;;;;;;15.77;12.10;;;4.50;44.20;;;;;;10385682;28;20312;-70
2023/02/14 08:34:19;;;;;;;18.80;12.23;;;4.50;44.40;;;;;;10386779;28;20253;-70
2023/02/14 08:39:22;;;;;;;13.53;12.10;;;4.60;44.50;;;;;;10392658;28;20237;-71
2023/02/14 08:44:26;;;;;;;15.07;11.57;;;4.60;44.50;;;;;;10394219;28;20230;-71
2023/02/14 08:49:30;;;;;;;14.73;12.20;;;4.60;44.50;;;;;;10396547;28;20233;-71
2023/02/14 08:54:33;;;;;;;14.17;12.60;;;4.70;44.50;;;;;;10388387;28;20240;-70
2023/02/14 08:59:37;;;;;;;13.20;11.67;;;4.80;44.50;;;;;;10396022;28;20689;-71
2023/02/14 09:04:41;;;;;;;12.63;11.30;;;4.80;44.30;;;;;;10388348;28;20226;-71
2023/02/14 09:09:44;;;;;;;15.30;11.30;;;4.80;44.10;;;;;;10395276;28;20229;-71
2023/02/14 09:14:48;;;;;;;12.93;11.57;;;4.80;44.30;;;;;;10391989;28;20876;-70
2023/02/14 09:19:51;;;;;;;15.37;13.77;;;4.80;44.50;;;;;;10386558;28;20226;-70
2023/02/14 09:24:54;;;;;;;11.60;10.40;;;4.80;44.20;;;;;;10386194;28;20225;-70
2023/02/14 09:29:59;;;;;;;10.67;9.57;;;4.80;44.40;;;;;;10386111;28;20225;-70
2023/02/14 09:35:02;;;;;;;17.00;11.23;;;4.80;44.50;;;;;;10396394;28;20834;-71
2023/02/14 09:40:07;;;;;;;14.77;10.93;;;4.80;44.20;;;;;;10392138;28;20236;-71
2023/02/14 09:45:14;;;;;;;11.63;10.37;;;4.80;44.30;;;;;;10391940;28;20238;-70
2023/02/14 09:50:24;;;;;;;11.57;10.37;;;4.70;44.70;;;;;;10390975;28;20229;-70
2023/02/14 09:55:34;;;;;;;12.13;10.83;;;4.70;44.50;;;;;;10394287;28;20241;-70
2023/02/14 10:00:44;;;;;;;12.07;10.87;;;4.70;44.50;;;;;;10402010;28;20230;-70
2023/02/14 10:05:54;;;;;;;11.47;10.27;;;4.60;44.80;;;;;;10397836;28;20315;-70
2023/02/14 10:11:19;;;;;;;10.27;8.83;;;4.60;44.70;;;;;;10398019;28;20234;-73
2023/02/14 10:16:26;;;;;;;12.63;11.17;;;4.70;46.20;;;;;;10372533;28;20344;-72
2023/02/14 10:21:33;;;;;;;16.03;13.20;;;4.80;46.30;;;;;;10396633;28;20232;-72
2023/02/14 10:26:40;;;;;;;12.57;11.27;;;4.90;45.60;;;;;;10401181;28;20599;-71
2023/02/14 10:31:54;;;;;;;11.93;10.73;;;5.10;45.10;;;;;;10395325;28;20404;-71
2023/02/14 10:37:18;;;;;;;12.70;11.40;;;5.20;45.10;;;;;;10395213;28;20278;-71
2023/02/14 10:42:31;;;;;;;21.27;16.93;;;5.20;45.10;;;;;;10395969;28;20238;-72
2023/02/14 10:47:42;;;;;;;12.63;11.33;;;5.30;44.70;;;;;;10390991;28;20230;-73
2023/02/14 10:52:56;;;;;;;12.83;11.53;;;5.30;45.10;;;;;;10394287;28;20229;-73
2023/02/14 10:58:01;;;;;;;12.53;11.23;;;5.40;45.10;;;;;;10403347;28;20230;-73
2023/02/14 11:03:09;;;;;;;12.87;11.47;;;5.50;44.70;;;;;;10396028;28;20599;-73
2023/02/14 11:08:22;;;;;;;11.17;10.03;;;5.50;44.80;;;;;;10404677;28;20530;-73
2023/02/14 11:13:34;;;;;;;12.30;11.10;;;5.50;44.70;;;;;;10390934;28;20236;-72
2023/02/14 11:18:40;;;;;;;12.67;11.47;;;5.60;44.90;;;;;;10398088;28;20232;-72
2023/02/14 11:23:44;;;;;;;12.20;10.93;;;5.70;44.70;;;;;;10394715;28;20230;-72
2023/02/14 11:28:55;;;;;;;12.37;11.10;;;5.70;44.70;;;;;;10391561;28;20595;-72
2023/02/14 11:34:01;;;;;;;11.97;10.67;;;5.80;45.00;;;;;;10386989;28;20703;-72
2023/02/14 11:39:21;;;;;;;11.20;10.10;;;5.90;44.70;;;;;;10388384;28;20229;-72
2023/02/14 11:44:27;;;;;;;11.57;10.27;;;5.90;44.40;;;;;;10380947;28;20233;-72
2023/02/14 11:49:34;;;;;;;11.30;10.20;;;5.80;44.20;;;;;;10388217;28;20636;-72
2023/02/14 11:54:39;;;;;;;12.33;11.10;;;5.80;44.30;;;;;;10377106;28;20238;-72
2023/02/14 11:59:45;;;;;;;16.07;13.73;;;5.80;44.40;;;;;;10385560;28;20233;-72
2023/02/14 12:04:53;;;;;;;12.23;10.93;;;5.80;44.60;;;;;;10387436;28;20238;-72
2023/02/14 12:10:17;;;;;;;12.07;10.77;;;5.80;44.60;;;;;;10384619;28;20899;-72
2023/02/14 12:15:27;;;;;;;12.60;11.23;;;5.90;44.80;;;;;;10383417;28;20257;-72
2023/02/14 12:20:40;;;;;;;12.80;11.47;;;6.00;44.70;;;;;;10386761;28;20602;-72
2023/02/14 12:25:49;;;;;;;12.43;11.13;;;6.10;44.40;;;;;;10379768;28;20229;-72
2023/02/14 12:30:53;;;;;;;13.03;11.73;;;6.10;44.30;;;;;;10384754;28;20231;-71
2023/02/14 12:36:06;;;;;;;13.40;12.03;;;6.10;44.30;;;;;;10381602;28;20270;-71
2023/02/14 12:41:24;;;;;;;13.20;11.80;;;6.10;44.50;;;;;;10386597;28;20221;-71
2023/02/14 12:46:48;;;;;;;14.57;12.83;;;6.30;44.60;;;;;;10394239;28;20689;-71
2023/02/14 12:52:02;;;;;;;13.77;12.47;;;6.30;44.50;;;;;;10389754;28;20284;-69
2023/02/14 12:57:15;;;;;;;14.13;12.63;;;6.40;44.40;;;;;;10389220;28;20235;-71
2023/02/14 13:03:07;;;;;;;13.30;11.97;;;6.50;44.40;;;;;;10390308;28;20232;-71
2023/02/14 13:08:25;;;;;;;13.63;12.30;;;6.50;44.30;;;;;;10391955;28;20779;-72
2023/02/14 13:13:37;;;;;;;13.63;12.23;;;6.60;44.30;;;;;;10393553;28;20233;-72
2023/02/14 13:18:49;;;;;;;17.20;15.30;;;6.60;44.40;;;;;;10393437;28;20260;-72
2023/02/14 13:23:58;;;;;;;16.33;14.23;;;6.70;44.10;;;;;;10385865;28;20554;-72
2023/02/14 13:29:04;;;;;;;15.40;13.80;;;6.70;44.10;;;;;;10384842;28;20241;-72
2023/02/14 13:34:13;;;;;;;16.80;14.97;;;6.80;44.20;;;;;;10391992;28;20605;-72
2023/02/14 13:39:24;;;;;;;16.23;14.40;;;6.80;44.20;;;;;;10390994;28;20225;-72
2023/02/14 13:44:43;;;;;;;18.37;15.67;;;6.90;44.30;;;;;;10387682;28;20721;-72
2023/02/14 13:49:50;;;;;;;18.33;15.47;;;6.90;44.30;;;;;;10391667;28;20233;-71
2023/02/14 13:55:03;;;;;;;17.07;15.17;;;6.80;44.20;;;;;;10375802;28;20237;-71
2023/02/14 14:00:37;;;;;;;16.83;14.40;;;6.70;44.20;;;;;;10394207;28;20600;-72
2023/02/14 14:05:57;;;;;;;16.10;14.40;;;6.80;44.30;;;;;;10381051;28;20261;-72
2023/02/14 14:11:05;;;;;;;17.77;15.23;;;6.80;44.20;;;;;;10381546;28;20595;-71
2023/02/14 14:16:28;;;;;;;15.50;13.90;;;6.80;44.20;;;;;;10376772;28;20234;-71
2023/02/14 14:21:33;;;;;;;16.30;14.37;;;6.70;44.10;;;;;;10374164;28;20234;-72
2023/02/14 14:26:40;;;;;;;17.37;15.37;;;6.70;44.60;;;;;;10376299;28;20234;-71
2023/02/14 14:31:45;;;;;;;16.40;14.23;;;6.70;44.60;;;;;;10384934;28;20233;-71
2023/02/14 14:36:48;;;;;;;16.87;15.10;;;6.80;44.50;;;;;;10376960;28;20245;-72
2023/02/14 14:41:53;;;;;;;17.83;15.63;;;6.90;44.60;;;;;;10387994;28;20603;-71
2023/02/14 14:46:59;;;;;;;17.03;15.23;;;7.00;44.50;;;;;;10383128;28;20330;-72
2023/02/14 14:52:02;;;;;;;16.20;14.40;;;7.10;44.50;;;;;;10376819;28;20229;-71
2023/02/14 14:57:07;;;;;;;17.03;14.60;;;7.20;44.60;;;;;;10389967;28;20248;-71
2023/02/14 15:02:25;;;;;;;16.23;14.63;;;7.20;44.50;;;;;;10389575;28;20607;-71
2023/02/14 15:07:32;;;;;;;17.13;14.47;;;7.30;44.60;;;;;;10388867;28;20718;-71
2023/02/14 15:17:57;;;;;;;13.27;12.00;;;7.30;44.10;;;;;;10380105;28;20240;-71
2023/02/14 15:23:01;;;;;;;18.00;13.43;;;7.30;43.80;;;;;;10385347;28;20233;-71
2023/02/14 15:28:06;;;;;;;13.87;12.47;;;7.20;44.10;;;;;;10384424;28;20606;-71
2023/02/14 15:33:11;;;;;;;13.93;12.57;;;7.00;43.80;;;;;;10394068;28;20741;-71
2023/02/14 15:38:15;;;;;;;14.83;13.30;;;6.90;43.80;;;;;;10389916;28;20231;-71
2023/02/14 15:43:29;;;;;;;13.23;11.87;;;6.80;44.20;;;;;;10388011;28;20228;-71
2023/02/14 15:48:33;;;;;;;18.90;15.47;;;6.80;44.20;;;;;;10390622;28;20233;-71
2023/02/14 15:53:40;;;;;;;16.37;14.63;;;6.80;44.20;;;;;;10388517;28;20237;-71
2023/02/14 15:58:45;;;;;;;15.67;14.03;;;6.80;43.90;;;;;;10391491;28;20229;-71
2023/02/14 16:03:52;;;;;;;16.33;14.67;;;6.70;43.90;;;;;;10386187;28;20233;-72
2023/02/14 16:08:56;;;;;;;16.60;14.90;;;6.60;44.00;;;;;;10391501;28;20229;-72
2023/02/14 16:14:21;;;;;;;15.63;14.07;;;6.60;44.10;;;;;;10386756;28;20236;-72
2023/02/14 16:19:40;;;;;;;15.47;13.93;;;6.70;44.10;;;;;;10388961;28;20246;-72
2023/02/14 16:24:43;;;;;;;15.77;14.10;;;6.70;44.10;;;;;;10388247;28;20236;-72
2023/02/14 16:29:47;;;;;;;16.03;14.43;;;6.70;44.10;;;;;;10391525;28;20225;-72
2023/02/14 16:34:51;;;;;;;17.67;15.80;;;6.70;44.10;;;;;;10390829;28;20605;-73
2023/02/14 16:39:56;;;;;;;18.47;16.53;;;6.70;44.10;;;;;;10383762;28;20780;-73
2023/02/14 16:45:01;;;;;;;18.33;16.43;;;6.70;44.10;;;;;;10388103;28;20234;-72
2023/02/14 16:50:04;;;;;;;19.27;17.27;;;6.70;43.90;;;;;;10388711;28;20236;-72
2023/02/14 16:55:15;;;;;;;20.30;18.30;;;6.70;43.90;;;;;;10336746;28;1268536;-70
2023/02/14 17:00:21;;;;;;;20.27;17.70;;;6.60;44.00;;;;;;10381533;28;20609;-73
2023/02/14 17:05:26;;;;;;;18.13;16.23;;;6.60;44.00;;;;;;10382721;28;20732;-73
2023/02/14 17:10:33;;;;;;;17.50;15.67;;;6.60;43.70;;;;;;10387366;28;20222;-72
2023/02/14 17:15:39;;;;;;;15.53;13.93;;;6.50;43.70;;;;;;10381510;28;20221;-73
2023/02/14 17:20:42;;;;;;;16.47;14.77;;;6.30;43.70;;;;;;10388573;28;20358;-73
2023/02/14 17:25:45;;;;;;;15.30;13.73;;;6.10;43.60;;;;;;10388966;28;20718;-73
2023/02/14 17:30:50;;;;;;;16.20;14.60;;;6.00;44.10;;;;;;10385292;28;20233;-73
2023/02/14 17:35:53;;;;;;;16.27;14.60;;;6.00;44.50;;;;;;10393033;28;20760;-73
2023/02/14 17:40:56;;;;;;;17.60;14.17;;;6.00;44.40;;;;;;10389641;28;20570;-73
2023/02/14 17:46:04;;;;;;;15.17;13.60;;;6.10;44.20;;;;;;10388099;28;20225;-73
2023/02/14 17:51:09;;;;;;;17.03;15.27;;;6.10;44.20;;;;;;10392079;28;20230;-73
2023/02/14 17:56:16;;;;;;;18.43;15.73;;;6.10;44.10;;;;;;10388571;28;20263;-73
2023/02/14 18:01:22;;;;;;;22.70;15.53;;;6.10;44.20;;;;;;10384948;28;20217;-73
2023/02/14 18:06:25;;;;;;;19.90;16.40;;;6.10;44.10;;;;;;10395350;28;20237;-73
2023/02/14 18:11:29;;;;;;;27.90;16.43;;;6.10;43.90;;;;;;10391766;28;20225;-72
2023/02/14 18:16:38;;;;;;;37.83;16.60;;;6.00;43.50;;;;;;10390530;28;20244;-73
2023/02/14 18:21:42;;;;;;;16.73;14.77;;;6.00;43.80;;;;;;10392933;28;20229;-72
2023/02/14 18:26:48;;;;;;;36.60;16.93;;;5.80;43.60;;;;;;10397299;28;20597;-72
2023/02/14 18:31:52;;;;;;;27.10;15.93;;;5.70;43.80;;;;;;10392452;28;20230;-73
2023/02/14 18:36:56;;;;;;;36.83;15.73;;;5.60;43.90;;;;;;10396710;28;20258;-73
2023/02/14 18:41:59;;;;;;;15.23;13.60;;;5.50;43.80;;;;;;10398316;28;20710;-73
2023/02/14 18:47:05;;;;;;;38.77;14.50;;;5.40;43.90;;;;;;10399315;28;20238;-73
2023/02/14 18:52:09;;;;;;;42.00;14.70;;;5.40;44.00;;;;;;10398916;28;20686;-72
2023/02/14 18:57:12;;;;;;;16.30;14.30;;;5.30;44.00;;;;;;10387433;28;20244;-73
2023/02/14 19:02:17;;;;;;;36.13;15.17;;;5.20;44.20;;;;;;10400239;28;20233;-72
2023/02/14 19:07:20;;;;;;;35.37;14.00;;;5.20;44.50;;;;;;10393391;28;20798;-73
2023/02/14 19:12:23;;;;;;;22.00;12.60;;;5.20;44.20;;;;;;10396139;28;20291;-73
2023/02/14 19:17:28;;;;;;;22.90;11.93;;;5.20;44.00;;;;;;10395605;28;20244;-73
2023/02/14 19:22:31;;;;;;;22.50;15.67;;;5.10;43.90;;;;;;10399295;28;20236;-73
2023/02/14 19:27:35;;;;;;;34.37;13.60;;;5.00;43.80;;;;;;10390571;28;20597;-73
2023/02/14 19:32:40;;;;;;;18.57;15.03;;;5.00;44.20;;;;;;10392586;28;20225;-73
2023/02/14 19:37:43;;;;;;;29.00;14.83;;;4.90;44.30;;;;;;10393321;28;20234;-72
2023/02/14 19:42:46;;;;;;;13.73;12.33;;;5.00;44.40;;;;;;10393367;28;20732;-73
2023/02/14 19:47:51;;;;;;;28.17;12.37;;;4.90;44.20;;;;;;10392736;28;20609;-73
2023/02/14 19:52:55;;;;;;;20.33;11.43;;;4.90;44.20;;;;;;10398666;28;20233;-73
2023/02/14 19:57:58;;;;;;;12.20;11.00;;;4.90;44.10;;;;;;10395517;28;20260;-73
2023/02/14 20:03:04;;;;;;;12.10;10.53;;;4.80;44.00;;;;;;10392628;28;20229;-72
2023/02/14 20:08:08;;;;;;;22.33;10.93;;;4.80;44.40;;;;;;10394272;28;20231;-73
2023/02/14 20:13:11;;;;;;;11.90;10.60;;;4.70;44.30;;;;;;10392513;28;20221;-72
2023/02/14 20:18:16;;;;;;;13.93;12.53;;;4.80;44.30;;;;;;10396603;28;20241;-73
2023/02/14 20:23:20;;;;;;;20.70;12.50;;;4.80;44.40;;;;;;10391245;28;20226;-72
2023/02/14 20:28:23;;;;;;;14.17;11.67;;;4.80;44.20;;;;;;10395901;28;20236;-72
2023/02/14 20:33:28;;;;;;;14.43;11.43;;;4.70;43.90;;;;;;10393764;28;20781;-72
2023/02/14 20:38:31;;;;;;;13.27;11.63;;;4.70;43.90;;;;;;10397196;28;20605;-72
2023/02/14 20:43:34;;;;;;;13.83;12.23;;;4.50;43.60;;;;;;10399925;28;20221;-72
2023/02/14 20:48:39;;;;;;;13.37;11.63;;;4.40;43.80;;;;;;10395868;28;20233;-71
2023/02/14 20:53:43;;;;;;;14.43;12.10;;;4.30;44.30;;;;;;10394764;28;20312;-71
2023/02/14 20:58:47;;;;;;;12.90;11.63;;;4.30;44.40;;;;;;10395322;28;20239;-71
2023/02/14 21:03:53;;;;;;;12.23;11.03;;;4.40;44.60;;;;;;10393634;28;20701;-71
2023/02/14 21:08:57;;;;;;;12.27;11.03;;;4.40;44.70;;;;;;10392626;28;20249;-71
2023/02/14 21:14:01;;;;;;;19.90;12.87;;;4.50;44.50;;;;;;10387463;28;20234;-71
2023/02/14 21:19:06;;;;;;;12.13;10.93;;;4.60;44.30;;;;;;10381888;28;20228;-71
2023/02/14 21:24:10;;;;;;;22.43;13.30;;;4.60;44.20;;;;;;10382017;28;20288;-71
2023/02/14 21:29:13;;;;;;;22.10;13.67;;;4.70;44.20;;;;;;10388521;28;20240;-71
2023/02/14 21:34:19;;;;;;;17.07;13.50;;;4.60;44.00;;;;;;10385921;28;20229;-71
2023/02/14 21:39:24;;;;;;;13.67;12.27;;;4.70;44.00;;;;;;10384453;28;20246;-70
2023/02/14 21:55:09;;;;;;;15.87;14.20;;;4.60;44.50;;;;;;10386891;28;20233;-70
2023/02/14 22:00:13;;;;;;;15.87;14.13;;;4.60;44.40;;;;;;10387648;28;20264;-71
2023/02/14 22:05:18;;;;;;;19.63;14.33;;;4.70;44.30;;;;;;10387793;28;20248;-71
2023/02/14 22:10:21;;;;;;;14.03;12.63;;;4.70;44.30;;;;;;10387613;28;20237;-70
2023/02/14 22:15:24;;;;;;;15.90;14.17;;;4.70;44.00;;;;;;10382347;28;20237;-70
2023/02/14 22:20:29;;;;;;;17.57;12.67;;;4.70;43.90;;;;;;10379283;28;20229;-71
2023/02/14 22:25:32;;;;;;;12.87;11.57;;;4.60;43.70;;;;;;10390230;28;20229;-71
2023/02/14 22:30:35;;;;;;;13.20;11.90;;;4.50;43.60;;;;;;10386923;28;20230;-71
2023/02/14 22:35:40;;;;;;;15.40;13.33;;;4.40;44.00;;;;;;10386869;28;20710;-70
2023/02/14 22:40:43;;;;;;;13.67;12.27;;;4.40;44.40;;;;;;10382879;28;20733;-71
2023/02/14 22:45:46;;;;;;;14.33;12.70;;;4.40;45.10;;;;;;10387305;28;20750;-70
2023/02/14 22:50:50;;;;;;;16.87;13.33;;;4.50;44.40;;;;;;10387514;28;20588;-71
2023/02/14 22:55:53;;;;;;;25.77;13.23;;;4.60;44.50;;;;;;10383560;28;20230;-71
2023/02/14 23:00:57;;;;;;;14.40;12.90;;;4.60;44.00;;;;;;10385447;28;20233;-70
2023/02/14 23:06:01;;;;;;;14.37;12.97;;;4.60;44.00;;;;;;10383879;28;20248;-71
2023/02/14 23:11:09;;;;;;;27.23;13.27;;;4.60;44.20;;;;;;10394971;28;20284;-71
2023/02/14 23:26:55;;;;;;;14.73;11.90;;;4.50;44.30;;;;;;10391279;28;20622;-71
2023/02/14 23:31:58;;;;;;;13.73;12.40;;;4.40;44.20;;;;;;10394014;28;20240;-71
2023/02/14 23:37:04;;;;;;;14.60;13.10;;;4.50;44.30;;;;;;10392299;28;20320;-71
2023/02/14 23:42:10;;;;;;;14.70;12.87;;;4.40;44.30;;;;;;10392677;28;20233;-71
2023/02/14 23:47:14;;;;;;;20.53;11.90;;;4.60;44.50;;;;;;10392632;28;20241;-71
2023/02/14 23:52:19;;;;;;;14.80;13.30;;;4.50;44.20;;;;;;10393716;28;20620;-71
2023/02/14 23:57:22;;;;;;;14.20;12.40;;;4.50;44.20;;;;;;10393553;28;20241;-71
